createdAt,value
2022-09-17T00:00:49.395Z,97683.00
2022-09-17T00:03:22.907Z,97682.00
2022-09-17T00:05:49.799Z,97686.00
2022-09-17T00:08:22.869Z,97685.00
2022-09-17T00:10:49.878Z,97671.00
2022-09-17T00:13:22.901Z,97667.00
2022-09-17T00:15:50.481Z,97688.00
2022-09-17T00:18:27.779Z,97680.00
2022-09-17T00:20:54.720Z,97679.00
2022-09-17T00:23:21.694Z,97680.00
2022-09-17T00:25:54.888Z,97681.00
2022-09-17T00:28:21.812Z,97691.00
2022-09-17T00:30:54.992Z,97688.00
2022-09-17T00:33:21.941Z,97692.00
2022-09-17T00:36:07.915Z,97674.00
2022-09-17T00:38:34.999Z,97686.00
2022-09-17T00:41:02.610Z,97682.00
2022-09-17T00:43:53.908Z,97689.00
2022-09-17T00:46:35.985Z,97683.00
2022-09-17T00:49:20.195Z,97675.00
2022-09-17T00:52:01.856Z,97674.00
2022-09-17T00:54:34.902Z,97667.00
2022-09-17T00:57:01.989Z,97669.00
2022-09-17T00:59:28.886Z,97682.00
2022-09-17T01:02:01.950Z,97673.00
2022-09-17T01:04:28.882Z,97690.00
2022-09-17T01:07:34.957Z,97685.00
2022-09-17T01:10:20.907Z,97688.00
2022-09-17T01:13:09.896Z,97684.00
2022-09-17T01:16:04.477Z,97693.00
2022-09-17T01:19:21.974Z,97700.00
2022-09-17T01:21:53.465Z,97698.00
2022-09-17T01:25:02.954Z,97704.00
2022-09-17T01:27:42.447Z,97707.00
2022-09-17T01:30:45.921Z,97701.00
2022-09-17T01:33:37.942Z,97716.00
2022-09-17T01:36:33.929Z,97709.00
2022-09-17T01:39:12.662Z,97714.00
2022-09-17T01:41:59.964Z,97717.00
2022-09-17T01:45:30.989Z,97713.00
2022-09-17T01:48:12.984Z,97724.00
2022-09-17T01:50:51.944Z,97704.00
2022-09-17T01:53:27.949Z,97708.00
2022-09-17T01:55:55.262Z,97724.00
2022-09-17T01:58:35.947Z,97728.00
2022-09-17T02:01:05.150Z,97719.00
2022-09-17T02:03:44.939Z,97723.00
2022-09-17T02:06:18.511Z,97727.00
2022-09-17T02:09:08.028Z,97705.00
2022-09-17T02:11:35.487Z,97719.00
2022-09-17T02:14:19.956Z,97724.00
2022-09-17T02:16:52.073Z,97724.00
2022-09-17T02:19:38.989Z,97738.00
2022-09-17T02:22:23.831Z,97736.00
2022-09-17T02:25:16.997Z,97737.00
2022-09-17T02:28:13.986Z,97725.00
2022-09-17T02:30:46.984Z,97729.00
2022-09-17T02:33:20.967Z,97715.00
2022-09-17T02:35:53.971Z,97709.00
2022-09-17T02:38:28.706Z,97716.00
2022-09-17T02:41:24.963Z,97720.00
2022-09-17T02:44:07.011Z,97721.00
2022-09-17T02:47:00.443Z,97721.00
2022-09-17T02:50:04.011Z,97727.00
2022-09-17T02:53:18.293Z,97725.00
2022-09-17T02:56:07.003Z,97716.00
2022-09-17T02:59:11.006Z,97721.00
2022-09-17T03:01:45.090Z,97717.00
2022-09-17T03:04:20.024Z,97717.00
2022-09-17T03:06:53.976Z,97730.00
2022-09-17T03:09:20.911Z,97717.00
2022-09-17T03:11:54.029Z,97714.00
2022-09-17T03:14:20.947Z,97720.00
2022-09-17T03:16:54.051Z,97701.00
2022-09-17T03:19:21.011Z,97704.00
2022-09-17T03:21:48.244Z,97711.00
2022-09-17T03:24:22.034Z,97716.00
2022-09-17T03:26:48.944Z,97720.00
2022-09-17T03:29:23.034Z,97716.00
2022-09-17T03:31:49.995Z,97698.00
2022-09-17T03:34:24.015Z,97715.00
2022-09-17T03:36:56.997Z,97736.00
2022-09-17T03:39:23.974Z,97727.00
2022-09-17T03:41:56.999Z,97729.00
2022-09-17T03:44:23.869Z,97737.00
2022-09-17T03:46:58.039Z,97746.00
2022-09-17T03:49:24.942Z,97758.00
2022-09-17T03:51:51.899Z,97743.00
2022-09-17T03:54:25.004Z,97740.00
2022-09-17T03:57:02.368Z,97731.00
2022-09-17T03:59:29.322Z,97744.00
2022-09-17T04:02:03.203Z,97751.00
2022-09-17T04:04:30.226Z,97740.00
2022-09-17T04:07:04.074Z,97746.00
2022-09-17T04:09:33.205Z,97751.00
2022-09-17T04:12:08.058Z,97722.00
2022-09-17T04:14:41.099Z,97770.00
2022-09-17T04:17:08.025Z,97731.00
2022-09-17T04:19:34.939Z,97749.00
2022-09-17T04:22:08.024Z,97756.00
2022-09-17T04:24:41.101Z,97730.00
2022-09-17T04:27:14.083Z,97767.00
2022-09-17T04:29:47.087Z,97777.00
2022-09-17T04:32:14.136Z,97778.00
2022-09-17T04:34:48.076Z,97782.00
2022-09-17T04:37:15.025Z,97778.00
2022-09-17T04:39:41.869Z,97795.00
2022-09-17T04:42:15.119Z,97810.00
2022-09-17T04:44:49.112Z,97808.00
2022-09-17T04:47:15.988Z,97805.00
2022-09-17T04:49:42.914Z,97808.00
2022-09-17T04:52:16.007Z,97817.00
2022-09-17T04:54:49.109Z,97828.00
2022-09-17T04:57:22.056Z,97834.00
2022-09-17T04:59:48.994Z,97846.00
2022-09-17T05:02:15.917Z,97851.00
2022-09-17T05:04:49.048Z,97848.00
2022-09-17T05:07:15.999Z,97853.00
2022-09-17T05:09:49.081Z,97859.00
2022-09-17T05:12:16.084Z,97855.00
2022-09-17T05:14:42.967Z,97861.00
2022-09-17T05:17:16.122Z,97864.00
2022-09-17T05:19:43.016Z,97866.00
2022-09-17T05:22:20.773Z,97877.00
2022-09-17T05:24:48.372Z,97886.00
2022-09-17T05:27:22.106Z,97881.00
2022-09-17T05:29:55.772Z,97882.00
2022-09-17T05:32:29.063Z,97883.00
2022-09-17T05:34:55.977Z,97887.00
2022-09-17T05:37:29.131Z,97878.00
2022-09-17T05:40:03.176Z,97890.00
2022-09-17T05:42:30.165Z,97881.00
2022-09-17T05:45:03.156Z,97905.00
2022-09-17T05:47:30.078Z,97914.00
2022-09-17T05:50:03.084Z,97928.00
2022-09-17T05:52:29.979Z,97926.00
2022-09-17T05:54:56.888Z,97930.00
2022-09-17T05:57:31.064Z,97912.00
2022-09-17T06:00:04.081Z,97929.00
2022-09-17T06:02:30.995Z,97937.00
2022-09-17T06:05:04.087Z,97937.00
2022-09-17T06:07:31.179Z,97936.00
2022-09-17T06:10:04.072Z,97947.00
2022-09-17T06:12:30.908Z,97953.00
2022-09-17T06:14:57.836Z,97944.00
2022-09-17T06:17:31.137Z,97936.00
2022-09-17T06:19:57.950Z,97952.00
2022-09-17T06:22:31.093Z,97940.00
2022-09-17T06:24:58.258Z,97957.00
2022-09-17T06:27:36.076Z,97959.00
2022-09-17T06:30:03.069Z,97955.00
2022-09-17T06:32:29.957Z,97958.00
2022-09-17T06:35:03.098Z,97953.00
2022-09-17T06:37:31.244Z,97897.00
2022-09-17T06:40:05.154Z,97893.00
2022-09-17T06:42:38.086Z,97896.00
2022-09-17T06:45:08.723Z,97904.00
2022-09-17T06:47:43.138Z,97903.00
2022-09-17T06:50:10.207Z,97905.00
2022-09-17T06:52:43.126Z,97917.00
2022-09-17T06:55:09.978Z,97912.00
2022-09-17T06:57:43.152Z,97916.00
2022-09-17T07:00:11.244Z,97917.00
2022-09-17T07:02:38.102Z,97910.00
2022-09-17T07:05:12.109Z,97941.00
2022-09-17T07:07:38.946Z,97925.00
2022-09-17T07:10:13.154Z,97914.00
2022-09-17T07:12:46.655Z,97914.00
2022-09-17T07:15:23.118Z,97891.00
2022-09-17T07:17:50.064Z,97878.00
2022-09-17T07:20:23.211Z,97858.00
2022-09-17T07:22:57.664Z,97869.00
2022-09-17T07:25:32.139Z,97866.00
2022-09-17T07:28:05.130Z,97853.00
2022-09-17T07:30:31.982Z,97866.00
2022-09-17T07:33:08.134Z,97872.00
2022-09-17T07:35:34.973Z,97891.00
2022-09-17T07:38:08.182Z,97874.00
2022-09-17T07:40:35.056Z,97875.00
2022-09-17T07:43:08.157Z,97879.00
2022-09-17T07:45:35.037Z,97886.00
2022-09-17T07:48:08.161Z,97876.00
2022-09-17T07:50:34.990Z,97875.00
2022-09-17T07:53:08.174Z,97879.00
2022-09-17T07:55:35.074Z,97881.00
2022-09-17T07:58:08.153Z,97880.00
2022-09-17T08:00:35.090Z,97880.00
2022-09-17T08:03:02.078Z,97887.00
2022-09-17T08:05:35.176Z,97890.00
2022-09-17T08:08:09.148Z,97894.00
2022-09-17T08:10:42.216Z,97889.00
2022-09-17T08:13:09.069Z,97886.00
2022-09-17T08:15:42.346Z,97888.00
2022-09-17T08:18:09.289Z,98004.00
2022-09-17T08:20:36.126Z,98015.00
2022-09-17T08:23:09.220Z,98014.00
2022-09-17T08:25:36.145Z,98015.00
2022-09-17T08:28:09.241Z,98036.00
2022-09-17T08:30:36.112Z,98051.00
2022-09-17T08:33:09.171Z,98061.00
2022-09-17T08:35:35.984Z,98057.00
2022-09-17T08:38:02.890Z,98082.00
2022-09-17T08:40:36.260Z,98078.00
2022-09-17T08:43:03.116Z,98080.00
2022-09-17T08:45:30.004Z,98089.00
2022-09-17T08:48:10.204Z,98091.00
2022-09-17T08:50:37.225Z,98093.00
2022-09-17T08:53:35.219Z,98100.00
2022-09-17T08:56:10.483Z,98105.00
2022-09-17T08:59:00.272Z,98110.00
2022-09-17T09:02:01.312Z,98116.00
2022-09-17T09:05:10.751Z,98110.00
2022-09-17T09:07:51.226Z,98114.00
2022-09-17T09:10:22.374Z,98116.00
2022-09-17T09:12:58.201Z,98110.00
2022-09-17T09:15:45.674Z,98106.00
2022-09-17T09:18:23.236Z,98119.00
2022-09-17T09:20:54.844Z,98127.00
2022-09-17T09:23:48.240Z,98122.00
2022-09-17T09:26:24.209Z,98124.00
2022-09-17T09:29:10.729Z,98123.00
2022-09-17T09:32:23.217Z,98128.00
2022-09-17T09:34:50.069Z,98130.00
2022-09-17T09:37:40.261Z,98124.00
2022-09-17T09:40:33.221Z,98145.00
2022-09-17T09:43:10.231Z,98128.00
2022-09-17T09:46:28.593Z,98138.00
2022-09-17T09:49:35.226Z,98146.00
2022-09-17T09:52:35.815Z,98154.00
2022-09-17T09:55:53.317Z,98156.00
2022-09-17T09:58:37.711Z,98156.00
2022-09-17T10:01:25.328Z,98174.00
2022-09-17T10:03:59.295Z,98164.00
2022-09-17T10:06:29.596Z,98156.00
2022-09-17T10:09:03.274Z,98165.00
2022-09-17T10:11:31.983Z,98161.00
2022-09-17T10:14:32.327Z,98163.00
2022-09-17T10:17:21.929Z,98156.00
2022-09-17T10:20:10.321Z,98150.00
2022-09-17T10:22:46.614Z,98159.00
2022-09-17T10:25:37.381Z,98151.00
2022-09-17T10:28:12.309Z,98161.00
2022-09-17T10:30:39.284Z,98170.00
2022-09-17T10:33:23.332Z,98155.00
2022-09-17T10:36:05.934Z,98180.00
2022-09-17T10:38:51.299Z,98186.00
2022-09-17T10:41:28.288Z,98167.00
2022-09-17T10:43:55.173Z,98176.00
2022-09-17T10:46:34.411Z,98182.00
2022-09-17T10:49:31.545Z,98170.00
2022-09-17T10:52:57.307Z,98186.00
2022-09-17T10:55:32.990Z,98198.00
2022-09-17T10:58:15.329Z,98201.00
2022-09-17T11:01:06.310Z,98202.00
2022-09-17T11:04:15.657Z,98205.00
2022-09-17T11:06:57.331Z,98211.00
2022-09-17T11:10:02.946Z,98208.00
2022-09-17T11:13:35.343Z,98214.00
2022-09-17T11:16:33.169Z,98207.00
2022-09-17T11:19:59.320Z,98206.00
2022-09-17T11:22:50.359Z,98199.00
2022-09-17T11:25:53.678Z,98218.00
2022-09-17T11:28:53.331Z,98216.00
2022-09-17T11:32:01.247Z,98214.00
2022-09-17T11:34:56.354Z,98204.00
2022-09-17T11:37:59.064Z,98222.00
2022-09-17T11:41:02.337Z,98220.00
2022-09-17T11:43:34.932Z,98212.00
2022-09-17T11:46:56.416Z,98223.00
2022-09-17T11:50:05.973Z,98228.00
2022-09-17T11:52:44.362Z,98223.00
2022-09-17T11:55:38.570Z,98226.00
2022-09-17T11:58:14.990Z,98221.00
2022-09-17T12:00:59.534Z,98211.00
2022-09-17T12:03:47.707Z,98208.00
2022-09-17T12:06:18.274Z,98208.00
2022-09-17T12:09:00.433Z,98200.00
2022-09-17T12:11:37.371Z,98199.00
2022-09-17T12:14:21.383Z,98214.00
2022-09-17T12:16:50.685Z,98213.00
2022-09-17T12:19:29.375Z,98219.00
2022-09-17T12:22:04.435Z,98226.00
2022-09-17T12:24:38.404Z,98238.00
2022-09-17T12:27:54.149Z,98238.00
2022-09-17T12:30:35.409Z,98238.00
2022-09-17T12:33:08.094Z,98236.00
2022-09-17T12:36:21.373Z,98238.00
2022-09-17T12:39:25.171Z,98231.00
2022-09-17T12:42:39.389Z,98234.00
2022-09-17T12:45:27.860Z,98241.00
2022-09-17T12:48:22.394Z,98224.00
2022-09-17T12:51:05.409Z,98235.00
2022-09-17T12:53:42.801Z,98227.00
2022-09-17T12:56:22.413Z,98233.00
2022-09-17T12:59:17.628Z,98239.00
2022-09-17T13:02:22.510Z,98255.00
2022-09-17T13:05:07.423Z,98245.00
2022-09-17T13:08:10.879Z,98246.00
2022-09-17T13:11:06.399Z,98248.00
2022-09-17T13:14:09.418Z,98245.00
2022-09-17T13:16:48.407Z,98252.00
2022-09-17T13:19:39.744Z,98254.00
2022-09-17T13:22:27.428Z,98242.00
2022-09-17T13:25:09.496Z,98247.00
2022-09-17T13:27:43.417Z,98238.00
2022-09-17T13:30:14.964Z,98249.00
2022-09-17T13:32:49.421Z,98246.00
2022-09-17T13:35:16.294Z,98251.00
2022-09-17T13:38:03.410Z,98251.00
2022-09-17T13:40:36.808Z,98254.00
2022-09-17T13:43:28.478Z,98239.00
2022-09-17T13:46:01.295Z,98251.00
2022-09-17T13:48:39.425Z,98245.00
2022-09-17T13:51:32.405Z,98261.00
2022-09-17T13:54:13.436Z,98254.00
2022-09-17T13:56:46.294Z,98263.00
2022-09-17T13:59:29.452Z,98268.00
2022-09-17T14:02:14.539Z,98271.00
2022-09-17T14:04:47.414Z,98262.00
2022-09-17T14:07:29.462Z,98258.00
2022-09-17T14:10:35.447Z,98260.00
2022-09-17T14:13:33.600Z,98260.00
2022-09-17T14:16:07.496Z,98256.00
2022-09-17T14:18:35.695Z,98248.00
2022-09-17T14:21:18.562Z,98250.00
2022-09-17T14:23:48.461Z,98246.00
2022-09-17T14:27:14.456Z,98251.00
2022-09-17T14:30:02.927Z,98241.00
2022-09-17T14:33:07.497Z,98253.00
2022-09-17T14:35:50.783Z,98232.00
2022-09-17T14:38:34.501Z,98246.00
2022-09-17T14:41:13.318Z,98249.00
2022-09-17T14:44:27.524Z,98255.00
2022-09-17T14:47:21.520Z,98268.00
2022-09-17T14:49:54.512Z,98259.00
2022-09-17T14:52:29.034Z,98265.00
2022-09-17T14:55:31.507Z,98261.00
2022-09-17T14:58:06.485Z,98279.00
2022-09-17T15:00:37.357Z,98271.00
2022-09-17T15:03:04.392Z,98266.00
2022-09-17T15:05:44.519Z,98263.00
2022-09-17T15:08:11.410Z,98271.00
2022-09-17T15:10:56.559Z,98275.00
2022-09-17T15:13:47.605Z,98281.00
2022-09-17T15:16:29.586Z,98287.00
2022-09-17T15:19:07.567Z,98297.00
2022-09-17T15:21:44.369Z,98305.00
2022-09-17T15:24:48.492Z,98318.00
2022-09-17T15:27:42.676Z,98316.00
2022-09-17T15:30:22.521Z,98326.00
2022-09-17T15:32:53.519Z,98326.00
2022-09-17T15:35:34.509Z,98319.00
2022-09-17T15:38:23.556Z,98322.00
2022-09-17T15:40:57.512Z,98325.00
2022-09-17T15:43:39.509Z,98337.00
2022-09-17T15:46:34.558Z,98336.00
2022-09-17T15:49:08.497Z,98342.00
2022-09-17T15:51:36.084Z,98354.00
2022-09-17T15:54:05.521Z,98356.00
2022-09-17T15:56:44.570Z,98364.00
2022-09-17T15:59:31.642Z,98371.00
2022-09-17T16:02:06.634Z,98374.00
2022-09-17T16:04:34.133Z,98367.00
2022-09-17T16:07:19.547Z,98374.00
2022-09-17T16:09:59.564Z,98369.00
2022-09-17T16:12:33.564Z,98377.00
2022-09-17T16:15:01.127Z,98368.00
2022-09-17T16:17:30.324Z,98373.00
2022-09-17T16:20:06.284Z,98382.00
2022-09-17T16:22:33.677Z,98374.00
2022-09-17T16:25:00.622Z,98384.00
2022-09-17T16:27:36.639Z,98382.00
2022-09-17T16:30:13.362Z,98383.00
2022-09-17T16:32:46.591Z,98386.00
2022-09-17T16:35:21.897Z,98395.00
2022-09-17T16:38:00.584Z,98389.00
2022-09-17T16:40:36.934Z,98391.00
2022-09-17T16:43:03.907Z,98399.00
2022-09-17T16:45:37.630Z,98399.00
2022-09-17T16:48:05.499Z,98407.00
2022-09-17T16:50:39.595Z,98405.00
2022-09-17T16:53:12.543Z,98414.00
2022-09-17T16:55:45.567Z,98415.00
2022-09-17T16:58:12.411Z,98424.00
2022-09-17T17:00:48.599Z,98426.00
2022-09-17T17:03:15.783Z,98436.00
2022-09-17T17:05:49.579Z,98422.00
2022-09-17T17:08:16.425Z,98428.00
2022-09-17T17:10:49.592Z,98435.00
2022-09-17T17:13:16.464Z,98429.00
2022-09-17T17:15:43.387Z,98446.00
2022-09-17T17:18:16.589Z,98447.00
2022-09-17T17:20:43.438Z,98454.00
2022-09-17T17:23:16.605Z,98451.00
2022-09-17T17:25:43.487Z,98451.00
2022-09-17T17:28:10.368Z,98441.00
2022-09-17T17:30:43.567Z,98454.00
2022-09-17T17:33:10.415Z,98455.00
2022-09-17T17:35:52.612Z,98453.00
2022-09-17T17:38:25.627Z,98453.00
2022-09-17T17:41:08.422Z,98458.00
2022-09-17T17:43:42.649Z,98466.00
2022-09-17T17:46:10.567Z,98463.00
2022-09-17T17:48:37.624Z,98474.00
2022-09-17T17:51:15.615Z,98470.00
2022-09-17T17:53:49.578Z,98478.00
2022-09-17T17:56:16.457Z,98478.00
2022-09-17T17:58:43.319Z,98488.00
2022-09-17T18:01:25.733Z,98489.00
2022-09-17T18:04:10.655Z,98493.00
2022-09-17T18:06:44.864Z,98510.00
2022-09-17T18:09:18.652Z,98514.00
2022-09-17T18:11:45.489Z,98521.00
2022-09-17T18:14:15.502Z,98519.00
2022-09-17T18:16:48.614Z,98522.00
2022-09-17T18:19:15.516Z,98524.00
2022-09-17T18:21:42.414Z,98540.00
2022-09-17T18:24:15.607Z,98552.00
2022-09-17T18:26:42.491Z,98551.00
2022-09-17T18:29:15.624Z,98551.00
2022-09-17T18:31:42.601Z,98563.00
2022-09-17T18:34:22.658Z,98568.00
2022-09-17T18:36:56.304Z,98566.00
2022-09-17T18:42:16.504Z,98595.00
2022-09-17T18:44:49.626Z,98585.00
2022-09-17T18:47:22.636Z,98597.00
2022-09-17T18:49:49.506Z,98613.00
2022-09-17T18:52:22.681Z,98617.00
2022-09-17T18:54:55.688Z,98614.00
2022-09-17T18:57:22.537Z,98622.00
2022-09-17T18:59:56.795Z,98622.00
2022-09-17T19:02:23.996Z,98625.00
2022-09-17T19:04:57.635Z,98636.00
2022-09-17T19:07:24.499Z,98645.00
2022-09-17T19:09:57.641Z,98653.00
2022-09-17T19:12:30.414Z,98656.00
2022-09-17T19:15:03.682Z,98650.00
2022-09-17T19:17:30.559Z,98654.00
2022-09-17T19:20:03.711Z,98654.00
2022-09-17T19:22:36.678Z,98656.00
2022-09-17T19:25:03.832Z,98656.00
2022-09-17T19:27:37.684Z,98658.00
2022-09-17T19:30:04.943Z,98655.00
2022-09-17T19:32:43.041Z,98664.00
2022-09-17T19:35:10.159Z,98656.00
2022-09-17T19:37:43.688Z,98676.00
2022-09-17T19:40:10.881Z,98675.00
2022-09-17T19:42:44.700Z,98690.00
2022-09-17T19:45:17.663Z,98685.00
2022-09-17T19:47:44.522Z,98693.00
2022-09-17T19:50:17.679Z,98688.00
2022-09-17T19:52:44.700Z,98704.00
2022-09-17T19:55:18.717Z,98714.00
2022-09-17T19:57:45.647Z,98711.00
2022-09-17T20:00:13.544Z,98703.00
2022-09-17T20:02:46.819Z,98722.00
2022-09-17T20:05:13.754Z,98718.00
2022-09-17T20:07:46.720Z,98726.00
2022-09-17T20:10:13.567Z,98720.00
2022-09-17T20:12:47.689Z,98727.00
2022-09-17T20:15:14.600Z,98729.00
2022-09-17T20:17:47.682Z,98735.00
2022-09-17T20:20:14.676Z,98737.00
2022-09-17T20:22:47.712Z,98738.00
2022-09-17T20:25:14.653Z,98734.00
2022-09-17T20:27:47.710Z,98750.00
2022-09-17T20:30:20.714Z,98750.00
2022-09-17T20:32:47.779Z,98757.00
2022-09-17T20:35:21.727Z,98743.00
2022-09-17T20:40:41.745Z,98757.00
2022-09-17T20:43:08.607Z,98750.00
2022-09-17T20:45:41.699Z,98762.00
2022-09-17T20:48:08.537Z,98751.00
2022-09-17T20:50:41.729Z,98763.00
2022-09-17T20:53:14.731Z,98752.00
2022-09-17T20:55:41.570Z,98769.00
2022-09-17T20:58:14.723Z,98773.00
2022-09-17T21:00:47.727Z,98782.00
2022-09-17T21:03:20.703Z,98772.00
2022-09-17T21:05:53.754Z,98791.00
2022-09-17T21:08:20.811Z,98798.00
2022-09-17T21:10:53.734Z,98794.00
2022-09-17T21:13:20.575Z,98799.00
2022-09-17T21:16:06.840Z,98800.00
2022-09-17T21:18:38.760Z,98793.00
2022-09-17T21:21:22.724Z,98801.00
2022-09-17T21:23:49.538Z,98814.00
2022-09-17T21:26:26.740Z,98807.00
2022-09-17T21:28:55.257Z,98813.00
2022-09-17T21:31:41.832Z,98826.00
2022-09-17T21:34:18.739Z,98831.00
2022-09-17T21:36:51.763Z,98832.00
2022-09-17T21:39:18.622Z,98832.00
2022-09-17T21:41:52.758Z,98837.00
2022-09-17T21:44:19.610Z,98841.00
2022-09-17T21:46:52.792Z,98836.00
2022-09-17T21:49:19.647Z,98838.00
2022-09-17T21:51:52.763Z,98835.00
2022-09-17T21:54:19.632Z,98846.00
2022-09-17T21:56:52.771Z,98835.00
2022-09-17T21:59:19.604Z,98847.00
2022-09-17T22:01:53.780Z,98852.00
2022-09-17T22:04:27.733Z,98840.00
2022-09-17T22:07:00.765Z,98850.00
2022-09-17T22:09:27.646Z,98841.00
2022-09-17T22:12:00.785Z,98843.00
2022-09-17T22:14:27.619Z,98853.00
2022-09-17T22:17:01.791Z,98856.00
2022-09-17T22:19:28.650Z,98859.00
2022-09-17T22:21:55.827Z,98869.00
2022-09-17T22:24:29.824Z,98860.00
2022-09-17T22:26:58.169Z,98860.00
2022-09-17T22:29:32.776Z,98845.00
2022-09-17T22:31:59.643Z,98867.00
2022-09-17T22:34:32.759Z,98864.00
2022-09-17T22:36:59.677Z,98866.00
2022-09-17T22:39:32.753Z,98856.00
2022-09-17T22:41:59.586Z,98866.00
2022-09-17T22:44:32.777Z,98860.00
2022-09-17T22:47:05.781Z,98860.00
2022-09-17T22:49:38.781Z,98852.00
2022-09-17T22:52:05.646Z,98859.00
2022-09-17T22:54:32.808Z,98865.00
2022-09-17T22:57:05.800Z,98867.00
2022-09-17T22:59:38.759Z,98860.00
2022-09-17T23:02:05.777Z,98871.00
2022-09-17T23:04:32.689Z,98868.00
2022-09-17T23:07:05.774Z,98879.00
2022-09-17T23:09:38.834Z,98871.00
2022-09-17T23:12:05.957Z,98866.00
2022-09-17T23:14:39.796Z,98861.00
2022-09-17T23:17:06.656Z,98850.00
2022-09-17T23:19:33.486Z,98868.00
2022-09-17T23:22:06.834Z,98870.00
2022-09-17T23:24:39.804Z,98868.00
2022-09-17T23:27:12.813Z,98865.00
2022-09-17T23:29:45.801Z,98860.00
2022-09-17T23:32:12.802Z,98866.00
2022-09-17T23:34:39.622Z,98853.00
2022-09-17T23:37:12.780Z,98856.00
2022-09-17T23:39:39.649Z,98867.00
2022-09-17T23:42:12.849Z,98850.00
2022-09-17T23:44:39.692Z,98865.00
2022-09-17T23:47:12.814Z,98858.00
2022-09-17T23:49:39.654Z,98861.00
2022-09-17T23:52:12.810Z,98844.00
2022-09-17T23:54:39.631Z,98854.00
2022-09-17T23:57:12.822Z,98857.00
2022-09-17T23:59:39.706Z,98858.00
